createdAt,value
2022-12-14T00:03:29.992Z,1.20
2022-12-14T00:08:29.306Z,1.20
2022-12-14T00:13:28.990Z,1.20
2022-12-14T00:18:28.224Z,1.30
2022-12-14T00:23:27.943Z,1.30
2022-12-14T00:28:27.236Z,1.40
2022-12-14T00:33:29.745Z,1.40
2022-12-14T00:38:29.196Z,1.50
2022-12-14T00:43:29.014Z,1.50
2022-12-14T00:48:28.190Z,1.60
2022-12-14T00:53:27.853Z,1.60
2022-12-14T00:58:27.361Z,1.70
2022-12-14T01:03:27.303Z,1.70
2022-12-14T01:08:28.905Z,1.80
2022-12-14T01:13:28.433Z,1.70
2022-12-14T01:18:28.018Z,1.70
2022-12-14T01:23:27.379Z,1.70
2022-12-14T01:28:26.857Z,1.70
2022-12-14T01:33:26.211Z,1.70
2022-12-14T01:38:25.846Z,1.70
2022-12-14T01:43:25.365Z,1.70
2022-12-14T01:48:24.946Z,1.60
2022-12-14T01:53:24.096Z,1.60
2022-12-14T01:58:23.021Z,1.60
2022-12-14T02:03:21.936Z,1.50
2022-12-14T02:08:20.882Z,1.40
2022-12-14T02:13:20.015Z,1.30
2022-12-14T02:18:19.014Z,1.20
2022-12-14T02:23:18.318Z,1.20
2022-12-14T02:28:17.142Z,1.20
2022-12-14T02:33:15.937Z,1.20
2022-12-14T02:38:14.845Z,1.30
2022-12-14T02:43:13.857Z,1.30
2022-12-14T02:48:12.863Z,1.40
2022-12-14T02:53:11.881Z,1.40
2022-12-14T02:58:10.961Z,1.40
2022-12-14T03:03:09.907Z,1.50
2022-12-14T03:08:08.922Z,1.40
2022-12-14T03:13:07.929Z,1.50
2022-12-14T03:18:06.961Z,1.50
2022-12-14T03:23:05.954Z,1.50
2022-12-14T03:28:04.879Z,1.50
2022-12-14T03:33:03.926Z,1.50
2022-12-14T03:38:03.020Z,1.40
2022-12-14T03:43:02.282Z,1.50
2022-12-14T03:48:01.282Z,1.50
2022-12-14T03:53:00.445Z,1.50
2022-12-14T03:57:59.028Z,1.50
2022-12-14T04:02:57.965Z,1.50
2022-12-14T04:07:57.059Z,1.50
2022-12-14T04:13:15.546Z,1.40
2022-12-14T04:18:33.285Z,1.40
2022-12-14T04:24:03.467Z,1.40
2022-12-14T04:29:20.111Z,1.40
2022-12-14T04:34:19.026Z,1.40
2022-12-14T04:39:17.889Z,1.50
2022-12-14T04:44:16.963Z,1.50
2022-12-14T04:49:15.981Z,1.50
2022-12-14T04:54:18.297Z,1.60
2022-12-14T04:59:16.900Z,1.50
2022-12-14T05:04:16.098Z,1.50
2022-12-14T05:09:15.110Z,1.50
2022-12-14T05:14:13.959Z,1.40
2022-12-14T05:19:12.924Z,1.40
2022-12-14T05:24:11.929Z,1.40
2022-12-14T05:29:10.963Z,1.40
2022-12-14T05:34:10.070Z,1.40
2022-12-14T05:39:08.945Z,1.40
2022-12-14T05:44:08.094Z,1.40
2022-12-14T05:49:07.100Z,1.40
2022-12-14T05:54:06.050Z,1.50
2022-12-14T05:59:05.158Z,1.50
2022-12-14T06:04:04.089Z,1.50
2022-12-14T06:09:03.034Z,1.60
2022-12-14T06:14:02.049Z,1.60
2022-12-14T06:19:00.954Z,1.60
2022-12-14T06:24:00.944Z,1.70
2022-12-14T06:29:00.022Z,1.70
2022-12-14T06:33:59.391Z,1.70
2022-12-14T06:38:58.141Z,1.70
2022-12-14T06:43:57.117Z,1.70
2022-12-14T06:48:56.017Z,1.70
2022-12-14T06:53:55.688Z,1.70
2022-12-14T06:58:54.982Z,1.80
2022-12-14T07:03:54.506Z,1.70
2022-12-14T07:08:54.067Z,1.70
2022-12-14T07:13:56.194Z,1.80
2022-12-14T07:18:55.466Z,1.80
2022-12-14T07:23:54.143Z,1.80
2022-12-14T07:28:53.077Z,1.80
2022-12-14T07:33:51.961Z,1.80
2022-12-14T07:38:51.067Z,1.90
2022-12-14T07:43:50.234Z,1.90
2022-12-14T07:48:49.009Z,2.00
2022-12-14T07:53:54.793Z,2.00
2022-12-14T07:58:56.301Z,2.00
2022-12-14T08:03:55.066Z,2.10
2022-12-14T08:08:54.106Z,2.10
2022-12-14T08:13:53.172Z,2.20
2022-12-14T08:18:52.102Z,2.30
2022-12-14T08:23:51.026Z,2.30
2022-12-14T08:28:50.096Z,2.40
2022-12-14T08:33:49.106Z,2.40
2022-12-14T08:38:48.950Z,2.30
2022-12-14T08:43:48.217Z,2.30
2022-12-14T08:48:47.162Z,2.30
2022-12-14T08:53:47.344Z,2.30
2022-12-14T08:58:46.011Z,2.40
2022-12-14T09:03:45.026Z,2.50
2022-12-14T09:08:44.009Z,2.60
2022-12-14T09:13:43.045Z,2.70
2022-12-14T09:18:42.036Z,2.80
2022-12-14T09:23:41.172Z,2.80
2022-12-14T09:28:40.190Z,2.70
2022-12-14T09:33:39.294Z,2.80
2022-12-14T09:38:38.812Z,2.90
2022-12-14T09:43:38.384Z,2.90
2022-12-14T09:48:38.014Z,3.00
2022-12-14T09:53:37.177Z,3.10
2022-12-14T09:58:36.496Z,3.10
2022-12-14T10:03:36.094Z,3.20
2022-12-14T10:08:35.235Z,3.20
2022-12-14T10:13:34.179Z,3.20
2022-12-14T10:18:58.314Z,3.20
2022-12-14T10:23:34.027Z,3.40
2022-12-14T10:28:33.336Z,3.50
2022-12-14T10:33:35.141Z,3.60
2022-12-14T10:38:34.695Z,3.80
2022-12-14T10:43:34.051Z,3.90
2022-12-14T10:48:33.284Z,3.90
2022-12-14T10:53:38.695Z,3.90
2022-12-14T10:58:34.146Z,4.00
2022-12-14T11:03:33.213Z,4.20
2022-12-14T11:08:32.336Z,4.30
2022-12-14T11:13:31.210Z,4.40
2022-12-14T11:18:31.163Z,4.40
2022-12-14T11:23:30.014Z,4.30
2022-12-14T11:28:36.180Z,4.20
2022-12-14T11:33:30.104Z,4.20
2022-12-14T11:38:29.692Z,4.20
2022-12-14T11:43:29.158Z,4.30
2022-12-14T11:48:28.429Z,4.30
2022-12-14T11:53:28.222Z,4.30
2022-12-14T11:58:27.462Z,4.40
2022-12-14T12:03:27.411Z,4.50
2022-12-14T12:08:26.944Z,4.50
2022-12-14T12:13:25.980Z,4.50
2022-12-14T12:18:26.191Z,4.40
2022-12-14T12:23:25.173Z,4.40
2022-12-14T12:28:24.127Z,4.40
2022-12-14T12:33:23.591Z,4.40
2022-12-14T12:38:22.173Z,4.40
2022-12-14T12:43:21.145Z,4.30
2022-12-14T12:48:20.698Z,4.10
2022-12-14T12:53:20.205Z,4.00
2022-12-14T12:58:19.201Z,3.90
2022-12-14T13:03:18.447Z,3.90
2022-12-14T13:08:17.248Z,3.80
2022-12-14T13:13:16.053Z,3.80
2022-12-14T13:18:40.846Z,3.70
2022-12-14T13:23:43.660Z,3.50
2022-12-14T13:28:17.272Z,3.30
2022-12-14T13:33:16.213Z,3.20
2022-12-14T13:38:15.208Z,3.10
2022-12-14T13:43:14.174Z,2.90
2022-12-14T13:48:13.412Z,2.80
2022-12-14T13:53:12.238Z,2.70
2022-12-14T13:58:11.272Z,2.50
2022-12-14T14:03:13.239Z,2.40
2022-12-14T14:08:12.146Z,2.30
2022-12-14T14:13:11.170Z,2.30
2022-12-14T14:18:10.198Z,2.30
2022-12-14T14:23:09.086Z,2.20
2022-12-14T14:28:08.920Z,2.10
2022-12-14T14:33:43.706Z,2.10
2022-12-14T14:38:09.174Z,2.10
2022-12-14T14:43:08.303Z,2.10
2022-12-14T14:48:07.411Z,2.20
2022-12-14T14:53:06.317Z,2.20
2022-12-14T14:58:05.318Z,2.30
2022-12-14T15:03:06.185Z,2.20
2022-12-14T15:08:05.034Z,2.10
2022-12-14T15:13:04.513Z,1.90
2022-12-14T15:18:03.314Z,1.80
2022-12-14T15:23:02.263Z,1.60
2022-12-14T15:28:01.251Z,1.50
2022-12-14T15:33:00.235Z,1.50
2022-12-14T15:38:00.366Z,1.40
2022-12-14T15:42:59.188Z,1.30
2022-12-14T15:47:58.370Z,1.20
2022-12-14T15:52:57.309Z,1.20
2022-12-14T15:57:56.485Z,1.10
2022-12-14T16:02:55.450Z,1.10
2022-12-14T16:07:54.400Z,1.00
2022-12-14T16:12:53.358Z,0.90
2022-12-14T16:17:57.536Z,0.80
2022-12-14T16:22:53.235Z,0.80
2022-12-14T16:27:52.265Z,0.80
2022-12-14T16:32:51.252Z,0.70
2022-12-14T16:37:50.827Z,0.60
2022-12-14T16:42:50.338Z,0.60
2022-12-14T16:47:49.397Z,0.50
2022-12-14T16:52:48.321Z,0.50
2022-12-14T16:57:47.384Z,0.40
2022-12-14T17:02:46.654Z,0.40
2022-12-14T17:07:45.366Z,0.20
2022-12-14T17:12:44.927Z,0.10
2022-12-14T17:17:44.410Z,0.00
2022-12-14T17:22:49.374Z,-0.10
2022-12-14T17:27:46.301Z,-0.10
2022-12-14T17:32:45.336Z,-0.10
2022-12-14T17:37:44.556Z,-0.20
2022-12-14T17:42:43.463Z,-0.20
2022-12-14T17:47:42.361Z,-0.20
2022-12-14T17:52:41.388Z,-0.30
2022-12-14T17:57:40.391Z,-0.30
2022-12-14T18:02:39.714Z,-0.40
2022-12-14T18:07:39.167Z,-0.40
2022-12-14T18:12:38.239Z,-0.50
2022-12-14T18:17:37.484Z,-0.50
2022-12-14T18:22:36.533Z,-0.60
2022-12-14T18:27:35.326Z,-0.70
2022-12-14T18:32:34.395Z,-0.70
2022-12-14T18:37:33.209Z,-0.80
2022-12-14T18:42:32.317Z,-0.80
2022-12-14T18:47:41.816Z,-0.80
2022-12-14T18:52:32.399Z,-0.80
2022-12-14T18:57:31.467Z,-0.90
2022-12-14T19:02:30.988Z,-0.90
2022-12-14T19:07:30.508Z,-0.90
2022-12-14T19:12:29.272Z,-0.90
2022-12-14T19:17:28.453Z,-0.90
2022-12-14T19:22:28.992Z,-0.90
2022-12-14T19:28:01.254Z,-0.90
2022-12-14T19:32:29.504Z,-0.90
2022-12-14T19:37:28.383Z,-1.00
2022-12-14T19:42:27.606Z,-1.00
2022-12-14T19:47:26.259Z,-1.10
2022-12-14T19:52:25.340Z,-1.20
2022-12-14T19:57:24.265Z,-1.20
2022-12-14T20:02:23.458Z,-1.30
2022-12-14T20:07:22.276Z,-1.20
2022-12-14T20:12:21.283Z,-1.20
2022-12-14T20:17:20.380Z,-1.20
2022-12-14T20:22:19.503Z,-1.20
2022-12-14T20:27:19.401Z,-1.20
2022-12-14T20:32:18.347Z,-1.20
2022-12-14T20:37:17.446Z,-1.20
2022-12-14T20:42:16.328Z,-1.20
2022-12-14T20:47:15.471Z,-1.20
2022-12-14T20:52:14.511Z,-1.30
2022-12-14T20:57:13.499Z,-1.40
2022-12-14T21:02:12.620Z,-1.50
2022-12-14T21:07:11.426Z,-1.60
2022-12-14T21:12:22.276Z,-1.60
2022-12-14T21:17:21.435Z,-1.60
2022-12-14T21:22:20.836Z,-1.60
2022-12-14T21:27:19.251Z,-1.70
2022-12-14T21:32:18.531Z,-1.80
2022-12-14T21:37:18.065Z,-1.90
2022-12-14T21:42:18.530Z,-2.00
2022-12-14T21:47:17.233Z,-2.10
2022-12-14T21:52:16.256Z,-2.10
2022-12-14T21:57:33.539Z,-2.20
2022-12-14T22:02:32.649Z,-2.20
2022-12-14T22:07:31.390Z,-2.20
2022-12-14T22:12:30.502Z,-2.20
2022-12-14T22:17:29.359Z,-2.20
2022-12-14T22:22:28.211Z,-2.20
2022-12-14T22:27:27.410Z,-2.20
2022-12-14T22:32:26.534Z,-2.30
2022-12-14T22:37:25.636Z,-2.30
2022-12-14T22:42:24.356Z,-2.30
2022-12-14T22:47:23.389Z,-2.40
2022-12-14T22:52:24.836Z,-2.40
2022-12-14T22:57:23.246Z,-2.40
2022-12-14T23:02:22.511Z,-2.40
2022-12-14T23:07:21.256Z,-2.40
2022-12-14T23:12:38.305Z,-2.50
2022-12-14T23:17:55.517Z,-2.50
2022-12-14T23:23:12.572Z,-2.40
2022-12-14T23:28:29.512Z,-2.40
2022-12-14T23:33:46.171Z,-2.40
2022-12-14T23:39:03.634Z,-2.50
2022-12-14T23:44:20.531Z,-2.60
2022-12-14T23:49:37.526Z,-2.60
2022-12-14T23:54:54.688Z,-2.70
